createdAt,value
2018-12-01T00:00:21.009Z,0.00
2018-12-01T00:01:21.031Z,0.00
2018-12-01T00:02:20.986Z,0.00
2018-12-01T00:03:20.972Z,0.00
2018-12-01T00:04:20.964Z,0.00
2018-12-01T00:05:20.955Z,0.00
2018-12-01T00:06:20.974Z,0.00
2018-12-01T00:07:20.926Z,0.00
2018-12-01T00:08:20.917Z,0.00
2018-12-01T00:09:20.921Z,0.00
2018-12-01T00:10:20.894Z,0.00
2018-12-01T00:11:20.908Z,0.00
2018-12-01T00:12:21.788Z,0.00
2018-12-01T00:13:20.861Z,0.00
2018-12-01T00:14:20.897Z,0.00
2018-12-01T00:15:20.890Z,0.00
2018-12-01T00:16:20.831Z,0.00
2018-12-01T00:17:20.827Z,0.00
2018-12-01T00:18:20.814Z,0.00
2018-12-01T00:19:20.832Z,0.00
2018-12-01T00:20:20.786Z,0.00
2018-12-01T00:21:20.816Z,0.00
2018-12-01T00:22:20.759Z,0.00
2018-12-01T00:23:20.747Z,0.00
2018-12-01T00:24:20.742Z,0.00
2018-12-01T00:25:20.764Z,0.00
2018-12-01T00:26:20.717Z,0.00
2018-12-01T00:27:20.716Z,0.00
2018-12-01T00:28:20.776Z,0.00
2018-12-01T00:29:20.685Z,0.00
2018-12-01T00:30:20.687Z,0.00
2018-12-01T00:31:20.667Z,0.00
2018-12-01T00:32:20.656Z,0.00
2018-12-01T00:33:20.693Z,0.00
2018-12-01T00:34:20.622Z,0.00
2018-12-01T00:35:20.616Z,0.00
2018-12-01T00:36:20.640Z,0.00
2018-12-01T00:37:20.597Z,0.00
2018-12-01T00:38:20.613Z,0.00
2018-12-01T00:39:20.573Z,0.00
2018-12-01T00:40:20.557Z,0.00
2018-12-01T00:41:20.582Z,0.00
2018-12-01T00:42:20.578Z,0.00
2018-12-01T00:43:20.533Z,0.00
2018-12-01T00:44:20.648Z,0.00
2018-12-01T00:45:20.507Z,0.00
2018-12-01T00:46:20.508Z,0.00
2018-12-01T00:47:20.516Z,0.00
2018-12-01T00:48:20.500Z,0.00
2018-12-01T00:49:20.487Z,0.00
2018-12-01T00:50:20.456Z,0.00
2018-12-01T00:51:20.463Z,0.00
2018-12-01T00:52:20.554Z,0.00
2018-12-01T00:53:20.415Z,0.00
2018-12-01T00:54:20.401Z,0.00
2018-12-01T00:55:20.394Z,0.00
2018-12-01T00:56:20.383Z,0.00
2018-12-01T00:57:20.405Z,0.00
2018-12-01T00:58:20.361Z,0.00
2018-12-01T00:59:20.437Z,0.00
2018-12-01T01:00:20.352Z,0.00
2018-12-01T01:01:20.345Z,0.00
2018-12-01T01:02:20.317Z,0.00
2018-12-01T01:03:20.300Z,0.00
2018-12-01T01:04:20.351Z,0.00
2018-12-01T01:05:20.280Z,0.00
2018-12-01T01:06:20.268Z,0.00
2018-12-01T01:07:20.313Z,0.00
2018-12-01T01:08:20.293Z,0.00
2018-12-01T01:09:20.242Z,0.00
2018-12-01T01:10:20.232Z,0.00
2018-12-01T01:11:20.217Z,0.00
2018-12-01T01:12:20.257Z,0.00
2018-12-01T01:13:20.220Z,0.00
2018-12-01T01:14:20.180Z,0.00
2018-12-01T01:15:20.175Z,0.00
2018-12-01T01:16:20.157Z,0.00
2018-12-01T01:17:20.190Z,0.00
2018-12-01T01:18:20.139Z,0.00
2018-12-01T01:19:20.177Z,0.00
2018-12-01T01:20:20.110Z,0.00
2018-12-01T01:21:20.140Z,0.00
2018-12-01T01:22:20.092Z,0.00
2018-12-01T01:23:20.085Z,0.00
2018-12-01T01:24:20.207Z,0.00
2018-12-01T01:25:20.056Z,0.00
2018-12-01T01:26:20.073Z,0.00
2018-12-01T01:27:20.064Z,0.00
2018-12-01T01:28:20.021Z,0.00
2018-12-01T01:29:20.039Z,0.00
2018-12-01T01:30:20.000Z,0.00
2018-12-01T01:31:19.997Z,0.00
2018-12-01T01:32:19.978Z,0.00
2018-12-01T01:33:20.004Z,0.00
2018-12-01T01:34:19.955Z,0.00
2018-12-01T01:35:19.947Z,0.00
2018-12-01T01:36:19.938Z,0.00
2018-12-01T01:37:19.925Z,0.00
2018-12-01T01:38:19.955Z,0.00
2018-12-01T01:39:19.912Z,0.00
2018-12-01T01:40:19.887Z,0.00
2018-12-01T01:41:19.878Z,0.00
2018-12-01T01:42:19.867Z,0.00
2018-12-01T01:43:19.891Z,0.00
2018-12-01T01:44:19.846Z,0.00
2018-12-01T01:45:19.836Z,0.00
2018-12-01T01:46:26.875Z,0.00
2018-12-01T01:47:19.817Z,0.00
2018-12-01T01:48:19.889Z,0.00
2018-12-01T01:49:19.792Z,0.00
2018-12-01T01:50:19.828Z,0.00
2018-12-01T01:51:19.765Z,0.00
2018-12-01T01:52:19.813Z,0.00
2018-12-01T01:53:19.746Z,0.00
2018-12-01T01:54:19.755Z,0.00
2018-12-01T01:55:19.722Z,0.00
2018-12-01T01:56:19.719Z,0.00
2018-12-01T01:57:19.739Z,0.00
2018-12-01T01:58:19.719Z,0.00
2018-12-01T01:59:19.683Z,0.00
2018-12-01T02:00:19.722Z,0.00
2018-12-01T02:01:19.657Z,0.00
2018-12-01T02:02:19.691Z,0.00
2018-12-01T02:03:19.639Z,0.00
2018-12-01T02:04:19.643Z,0.00
2018-12-01T02:05:19.614Z,0.00
2018-12-01T02:06:19.603Z,0.00
2018-12-01T02:07:19.639Z,0.00
2018-12-01T02:08:19.593Z,0.00
2018-12-01T02:09:19.574Z,0.00
2018-12-01T02:10:19.582Z,0.00
2018-12-01T02:11:19.548Z,0.00
2018-12-01T02:12:19.534Z,0.00
2018-12-01T02:13:19.570Z,0.00
2018-12-01T02:14:19.527Z,0.00
2018-12-01T02:15:19.502Z,0.00
2018-12-01T02:16:19.493Z,0.00
2018-12-01T02:17:19.512Z,0.00
2018-12-01T02:18:19.472Z,0.00
2018-12-01T02:19:19.461Z,0.00
2018-12-01T02:20:20.343Z,0.00
2018-12-01T02:21:19.434Z,0.00
2018-12-01T02:22:19.465Z,0.00
2018-12-01T02:23:19.445Z,0.00
2018-12-01T02:24:19.436Z,0.00
2018-12-01T02:25:19.395Z,0.00
2018-12-01T02:26:19.385Z,0.00
2018-12-01T02:27:19.419Z,0.00
2018-12-01T02:28:19.364Z,0.00
2018-12-01T02:29:19.346Z,0.00
2018-12-01T02:30:19.344Z,0.00
2018-12-01T02:31:19.374Z,0.00
2018-12-01T02:32:19.317Z,0.00
2018-12-01T02:33:19.312Z,0.00
2018-12-01T02:34:19.295Z,0.00
2018-12-01T02:35:19.296Z,0.00
2018-12-01T02:36:19.341Z,0.00
2018-12-01T02:37:19.291Z,0.00
2018-12-01T02:38:19.249Z,0.00
2018-12-01T02:39:19.242Z,0.00
2018-12-01T02:40:19.237Z,0.00
2018-12-01T02:41:19.209Z,0.00
2018-12-01T02:42:19.226Z,0.00
2018-12-01T02:43:19.198Z,0.00
2018-12-01T02:44:19.275Z,0.00
2018-12-01T02:45:19.172Z,0.00
2018-12-01T02:46:19.169Z,0.00
2018-12-01T02:47:19.206Z,0.00
2018-12-01T02:48:19.141Z,0.00
2018-12-01T02:49:19.129Z,0.00
2018-12-01T02:50:19.122Z,0.00
2018-12-01T02:51:19.105Z,0.00
2018-12-01T02:52:19.135Z,0.00
2018-12-01T02:53:19.081Z,0.00
2018-12-01T02:54:19.083Z,0.00
2018-12-01T02:55:19.064Z,0.00
2018-12-01T02:56:19.087Z,0.00
2018-12-01T02:57:19.038Z,0.00
2018-12-01T02:58:19.029Z,0.00
2018-12-01T02:59:19.022Z,0.00
2018-12-01T03:00:19.005Z,0.00
2018-12-01T03:01:19.023Z,0.00
2018-12-01T03:02:18.986Z,0.00
2018-12-01T03:03:18.997Z,0.00
2018-12-01T03:04:18.991Z,0.00
2018-12-01T03:05:18.982Z,0.00
2018-12-01T03:06:18.935Z,0.00
2018-12-01T03:07:18.932Z,0.00
2018-12-01T03:08:18.916Z,0.00
2018-12-01T03:09:18.912Z,0.00
2018-12-01T03:10:18.927Z,0.00
2018-12-01T03:11:18.891Z,0.00
2018-12-01T03:12:18.901Z,0.00
2018-12-01T03:13:18.859Z,0.00
2018-12-01T03:14:18.852Z,0.00
2018-12-01T03:15:18.871Z,0.00
2018-12-01T03:16:18.881Z,0.00
2018-12-01T03:17:18.823Z,0.00
2018-12-01T03:18:18.803Z,0.00
2018-12-01T03:19:18.799Z,0.00
2018-12-01T03:20:18.788Z,0.00
2018-12-01T03:21:18.805Z,0.00
2018-12-01T03:22:18.768Z,0.00
2018-12-01T03:23:18.752Z,0.00
2018-12-01T03:24:18.839Z,0.00
2018-12-01T03:25:18.732Z,0.00
2018-12-01T03:26:18.714Z,0.00
2018-12-01T03:27:18.714Z,0.00
2018-12-01T03:28:18.724Z,0.00
2018-12-01T03:29:18.676Z,0.00
2018-12-01T03:30:18.671Z,0.00
2018-12-01T03:31:18.656Z,0.00
2018-12-01T03:32:18.701Z,0.00
2018-12-01T03:33:18.640Z,0.00
2018-12-01T03:34:18.639Z,0.00
2018-12-01T03:35:18.619Z,0.00
2018-12-01T03:36:18.604Z,0.00
2018-12-01T03:37:18.622Z,0.00
2018-12-01T03:38:18.590Z,0.00
2018-12-01T03:39:18.578Z,0.00
2018-12-01T03:40:18.569Z,0.00
2018-12-01T03:41:18.567Z,0.00
2018-12-01T03:42:18.594Z,0.00
2018-12-01T03:43:18.538Z,0.00
2018-12-01T03:44:18.514Z,0.00
2018-12-01T03:45:18.533Z,0.00
2018-12-01T03:46:18.520Z,0.00
2018-12-01T03:47:18.526Z,0.00
2018-12-01T03:48:18.492Z,0.00
2018-12-01T03:49:18.459Z,0.00
2018-12-01T03:50:18.485Z,0.00
2018-12-01T03:51:18.451Z,0.00
2018-12-01T03:52:18.421Z,0.00
2018-12-01T03:53:18.416Z,0.00
2018-12-01T03:54:18.409Z,0.00
2018-12-01T03:55:18.412Z,0.00
2018-12-01T03:56:18.383Z,0.00
2018-12-01T03:57:18.416Z,0.00
2018-12-01T03:58:18.427Z,0.00
2018-12-01T03:59:18.382Z,0.00
2018-12-01T04:00:18.338Z,0.00
2018-12-01T04:01:18.323Z,0.00
2018-12-01T04:02:18.317Z,0.00
2018-12-01T04:03:18.331Z,0.00
2018-12-01T04:04:18.293Z,0.00
2018-12-01T04:05:18.281Z,0.00
2018-12-01T04:06:18.273Z,0.00
2018-12-01T04:07:18.262Z,0.00
2018-12-01T04:08:18.276Z,0.00
2018-12-01T04:09:18.245Z,0.00
2018-12-01T04:10:18.222Z,0.00
2018-12-01T04:11:18.214Z,0.00
2018-12-01T04:12:18.211Z,0.00
2018-12-01T04:13:18.225Z,0.00
2018-12-01T04:14:18.198Z,0.00
2018-12-01T04:15:18.199Z,0.00
2018-12-01T04:16:18.157Z,0.00
2018-12-01T04:17:18.273Z,0.00
2018-12-01T04:18:18.139Z,0.00
2018-12-01T04:19:18.123Z,0.00
2018-12-01T04:20:18.234Z,0.00
2018-12-01T04:21:18.102Z,0.00
2018-12-01T04:22:18.196Z,0.00
2018-12-01T04:23:18.079Z,0.00
2018-12-01T04:24:18.068Z,0.00
2018-12-01T04:25:18.065Z,0.00
2018-12-01T04:26:18.052Z,0.00
2018-12-01T04:27:18.066Z,0.00
2018-12-01T04:28:18.031Z,0.00
2018-12-01T04:29:18.017Z,0.00
2018-12-01T04:30:18.001Z,0.00
2018-12-01T04:31:18.441Z,0.00
2018-12-01T04:32:17.982Z,0.00
2018-12-01T04:33:17.965Z,0.00
2018-12-01T04:34:17.966Z,0.00
2018-12-01T04:35:17.949Z,0.00
2018-12-01T04:36:18.060Z,0.00
2018-12-01T04:37:17.935Z,0.00
2018-12-01T04:38:18.000Z,0.00
2018-12-01T04:39:17.960Z,0.00
2018-12-01T04:40:17.897Z,0.00
2018-12-01T04:41:17.893Z,0.00
2018-12-01T04:42:17.908Z,0.00
2018-12-01T04:43:17.858Z,0.00
2018-12-01T04:44:17.850Z,0.00
2018-12-01T04:45:17.831Z,0.00
2018-12-01T04:46:17.826Z,0.00
2018-12-01T04:47:17.851Z,0.00
2018-12-01T04:48:17.802Z,0.00
2018-12-01T04:49:17.792Z,0.00
2018-12-01T04:50:17.811Z,0.00
2018-12-01T04:51:17.774Z,0.00
2018-12-01T04:52:17.761Z,0.00
2018-12-01T04:53:17.786Z,0.00
2018-12-01T04:54:17.770Z,0.00
2018-12-01T04:55:17.755Z,0.00
2018-12-01T04:56:17.719Z,0.00
2018-12-01T04:57:17.736Z,0.00
2018-12-01T04:58:17.744Z,0.00
2018-12-01T04:59:17.685Z,0.00
2018-12-01T05:00:17.672Z,0.00
2018-12-01T05:01:17.658Z,0.00
2018-12-01T05:02:17.685Z,0.00
2018-12-01T05:03:17.656Z,0.00
2018-12-01T05:04:17.656Z,0.00
2018-12-01T05:05:17.654Z,0.00
2018-12-01T05:06:17.603Z,0.00
2018-12-01T05:07:17.595Z,0.00
2018-12-01T05:08:17.587Z,0.00
2018-12-01T05:09:17.595Z,0.00
2018-12-01T05:10:17.598Z,0.00
2018-12-01T05:11:17.561Z,0.00
2018-12-01T05:12:17.538Z,0.00
2018-12-01T05:13:17.532Z,0.00
2018-12-01T05:14:17.512Z,0.00
2018-12-01T05:15:17.547Z,0.00
2018-12-01T05:16:17.538Z,0.00
2018-12-01T05:17:17.484Z,0.00
2018-12-01T05:18:17.468Z,0.00
2018-12-01T05:19:17.463Z,0.00
2018-12-01T05:20:17.519Z,0.00
2018-12-01T05:21:17.441Z,0.00
2018-12-01T05:22:17.434Z,0.00
2018-12-01T05:23:17.417Z,0.00
2018-12-01T05:24:17.410Z,0.00
2018-12-01T05:25:17.434Z,0.00
2018-12-01T05:26:17.392Z,0.00
2018-12-01T05:27:17.369Z,0.00
2018-12-01T05:28:17.368Z,0.00
2018-12-01T05:29:17.383Z,0.00
2018-12-01T05:30:17.348Z,0.00
2018-12-01T05:31:17.331Z,0.00
2018-12-01T05:32:17.362Z,0.00
2018-12-01T05:33:17.362Z,0.00
2018-12-01T05:34:17.298Z,0.00
2018-12-01T05:35:17.293Z,0.00
2018-12-01T05:36:17.299Z,0.00
2018-12-01T05:37:17.256Z,0.00
2018-12-01T05:38:17.248Z,0.00
2018-12-01T05:39:17.284Z,0.00
2018-12-01T05:40:17.235Z,0.00
2018-12-01T05:41:17.291Z,0.00
2018-12-01T05:42:17.208Z,0.00
2018-12-01T05:43:17.190Z,0.00
2018-12-01T05:44:17.231Z,0.00
2018-12-01T05:45:17.180Z,0.00
2018-12-01T05:46:17.157Z,0.00
2018-12-01T05:47:17.156Z,0.00
2018-12-01T05:48:17.139Z,0.00
2018-12-01T05:49:17.153Z,0.00
2018-12-01T05:50:17.334Z,0.00
2018-12-01T05:51:17.273Z,0.00
2018-12-01T05:52:17.476Z,0.00
2018-12-01T05:53:17.080Z,0.00
2018-12-01T05:54:17.109Z,0.00
2018-12-01T05:55:17.064Z,0.00
2018-12-01T05:56:17.061Z,0.00
2018-12-01T05:57:17.036Z,0.00
2018-12-01T05:58:17.030Z,0.00
2018-12-01T05:59:17.048Z,0.00
2018-12-01T06:00:17.001Z,0.00
2018-12-01T06:01:17.001Z,0.00
2018-12-01T06:02:16.982Z,0.00
2018-12-01T06:03:16.969Z,0.00
2018-12-01T06:04:17.025Z,0.00
2018-12-01T06:05:16.945Z,0.00
2018-12-01T06:06:16.984Z,0.00
2018-12-01T06:07:16.929Z,0.00
2018-12-01T06:08:16.945Z,0.00
2018-12-01T06:09:16.907Z,0.00
2018-12-01T06:10:16.891Z,0.00
2018-12-01T06:11:16.902Z,0.00
2018-12-01T06:12:16.972Z,0.00
2018-12-01T06:13:16.865Z,0.00
2018-12-01T06:14:16.849Z,0.00
2018-12-01T06:15:16.853Z,0.00
2018-12-01T06:16:16.883Z,0.00
2018-12-01T06:17:16.822Z,0.00
2018-12-01T06:18:16.806Z,0.00
2018-12-01T06:19:16.791Z,0.00
2018-12-01T06:20:16.799Z,0.00
2018-12-01T06:21:16.800Z,0.00
2018-12-01T06:22:16.758Z,0.00
2018-12-01T06:23:16.746Z,0.00
2018-12-01T06:24:16.771Z,0.00
2018-12-01T06:25:16.727Z,0.00
2018-12-01T06:26:16.729Z,0.00
2018-12-01T06:27:16.741Z,0.00
2018-12-01T06:28:16.690Z,0.00
2018-12-01T06:29:16.686Z,0.00
2018-12-01T06:30:16.669Z,0.00
2018-12-01T06:31:16.717Z,0.00
2018-12-01T06:32:16.659Z,0.00
2018-12-01T06:33:16.636Z,0.00
2018-12-01T06:34:16.647Z,0.00
2018-12-01T06:35:16.670Z,0.00
2018-12-01T06:36:16.600Z,0.00
2018-12-01T06:37:16.621Z,0.00
2018-12-01T06:38:16.627Z,0.00
2018-12-01T06:39:16.564Z,0.00
2018-12-01T06:40:16.554Z,0.00
2018-12-01T06:41:16.586Z,0.00
2018-12-01T06:42:16.537Z,0.00
2018-12-01T06:43:16.523Z,0.00
2018-12-01T06:44:16.510Z,0.00
2018-12-01T06:45:16.556Z,4.00
2018-12-01T06:46:16.657Z,4.00
2018-12-01T06:47:16.565Z,4.00
2018-12-01T06:48:16.499Z,0.00
2018-12-01T06:49:16.479Z,4.00
2018-12-01T06:50:16.473Z,4.00
2018-12-01T06:51:16.436Z,4.00
2018-12-01T06:52:16.421Z,4.00
2018-12-01T06:53:16.417Z,8.00
2018-12-01T06:54:16.425Z,4.00
2018-12-01T06:55:16.512Z,8.00
2018-12-01T06:56:16.374Z,8.00
2018-12-01T06:57:16.394Z,8.00
2018-12-01T06:58:16.353Z,12.00
2018-12-01T06:59:16.341Z,12.00
2018-12-01T07:00:16.359Z,16.00
2018-12-01T07:01:16.340Z,16.00
2018-12-01T07:02:16.308Z,16.00
2018-12-01T07:03:16.884Z,20.00
2018-12-01T07:04:16.279Z,24.00
2018-12-01T07:05:16.327Z,24.00
2018-12-01T07:06:16.280Z,24.00
2018-12-01T07:07:16.248Z,28.00
2018-12-01T07:08:16.283Z,32.00
2018-12-01T07:09:16.257Z,28.00
2018-12-01T07:10:16.213Z,32.00
2018-12-01T07:11:16.216Z,36.00
2018-12-01T07:12:16.291Z,36.00
2018-12-01T07:13:16.285Z,40.00
2018-12-01T07:14:16.369Z,44.00
2018-12-01T07:15:16.167Z,48.00
2018-12-01T07:16:16.148Z,52.00
2018-12-01T07:17:16.157Z,56.00
2018-12-01T07:18:16.201Z,60.00
2018-12-01T07:19:16.147Z,60.00
2018-12-01T07:20:16.128Z,68.00
2018-12-01T07:21:16.096Z,72.00
2018-12-01T07:22:16.079Z,80.00
2018-12-01T07:23:17.066Z,84.00
2018-12-01T07:24:16.059Z,88.00
2018-12-01T07:25:16.096Z,92.00
2018-12-01T07:26:16.036Z,92.00
2018-12-01T07:27:16.084Z,88.00
2018-12-01T07:28:16.017Z,88.00
2018-12-01T07:29:16.001Z,92.00
2018-12-01T07:30:16.030Z,108.00
2018-12-01T07:31:15.982Z,116.00
2018-12-01T07:32:15.975Z,128.00
2018-12-01T07:33:15.960Z,120.00
2018-12-01T07:34:15.957Z,120.00
2018-12-01T07:35:16.013Z,124.00
2018-12-01T07:36:15.928Z,132.00
2018-12-01T07:37:15.921Z,148.00
2018-12-01T07:38:15.910Z,160.00
2018-12-01T07:39:15.932Z,164.00
2018-12-01T07:40:15.883Z,160.00
2018-12-01T07:41:15.874Z,152.00
2018-12-01T07:42:15.901Z,156.00
2018-12-01T07:43:15.865Z,156.00
2018-12-01T07:44:15.843Z,156.00
2018-12-01T07:45:15.836Z,164.00
2018-12-01T07:46:15.839Z,168.00
2018-12-01T07:47:22.890Z,176.00
2018-12-01T07:48:15.799Z,196.00
2018-12-01T07:49:15.797Z,212.00
2018-12-01T07:50:15.775Z,232.00
2018-12-01T07:51:15.769Z,256.00
2018-12-01T07:52:15.852Z,284.00
2018-12-01T07:53:17.509Z,324.00
2018-12-01T07:54:15.731Z,344.00
2018-12-01T07:55:15.714Z,344.00
2018-12-01T07:56:15.734Z,344.00
2018-12-01T07:57:15.689Z,356.00
2018-12-01T07:58:15.748Z,384.00
2018-12-01T07:59:15.667Z,420.00
2018-12-01T08:00:15.671Z,440.00
2018-12-01T08:01:15.672Z,448.00
2018-12-01T08:02:15.633Z,436.00
2018-12-01T08:03:15.651Z,412.00
2018-12-01T08:04:15.648Z,408.00
2018-12-01T08:05:15.600Z,420.00
2018-12-01T08:06:15.594Z,424.00
2018-12-01T08:07:15.669Z,432.00
2018-12-01T08:08:15.591Z,440.00
2018-12-01T08:09:15.621Z,448.00
2018-12-01T08:10:15.576Z,456.00
2018-12-01T08:11:15.534Z,468.00
2018-12-01T08:12:16.481Z,476.00
2018-12-01T08:13:15.553Z,480.00
2018-12-01T08:14:15.503Z,480.00
2018-12-01T08:15:15.504Z,484.00
2018-12-01T08:16:15.533Z,488.00
2018-12-01T08:17:15.467Z,500.00
2018-12-01T08:18:15.521Z,512.00
2018-12-01T08:19:15.448Z,528.00
2018-12-01T08:20:15.469Z,536.00
2018-12-01T08:21:15.437Z,548.00
2018-12-01T08:22:15.415Z,556.00
2018-12-01T08:23:15.434Z,556.00
2018-12-01T08:24:15.393Z,548.00
2018-12-01T08:25:15.383Z,540.00
2018-12-01T08:26:15.382Z,536.00
2018-12-01T08:27:15.369Z,548.00
2018-12-01T08:28:15.370Z,564.00
2018-12-01T08:29:16.328Z,576.00
2018-12-01T08:30:15.323Z,576.00
2018-12-01T08:31:15.407Z,588.00
2018-12-01T08:32:15.303Z,600.00
2018-12-01T08:33:15.288Z,620.00
2018-12-01T08:34:15.392Z,644.00
2018-12-01T08:35:15.273Z,668.00
2018-12-01T08:36:15.291Z,704.00
2018-12-01T08:37:15.243Z,752.00
2018-12-01T08:38:15.288Z,796.00
2018-12-01T08:39:15.388Z,828.00
2018-12-01T08:40:15.292Z,840.00
2018-12-01T08:41:15.249Z,848.00
2018-12-01T08:42:16.265Z,840.00
2018-12-01T08:43:15.213Z,820.00
2018-12-01T08:44:15.165Z,812.00
2018-12-01T08:45:15.191Z,788.00
2018-12-01T08:46:15.147Z,760.00
2018-12-01T08:47:15.133Z,744.00
2018-12-01T08:48:15.135Z,728.00
2018-12-01T08:49:15.108Z,732.00
2018-12-01T08:50:15.147Z,744.00
2018-12-01T08:51:15.091Z,760.00
2018-12-01T08:52:15.083Z,760.00
2018-12-01T08:53:16.042Z,748.00
2018-12-01T08:54:15.128Z,760.00
2018-12-01T08:55:15.108Z,772.00
2018-12-01T08:56:15.037Z,776.00
2018-12-01T08:57:15.025Z,772.00
2018-12-01T08:58:15.011Z,808.00
2018-12-01T08:59:15.044Z,872.00
2018-12-01T09:00:15.034Z,984.00
2018-12-01T09:01:15.003Z,1088.00
2018-12-01T09:02:14.971Z,1108.00
2018-12-01T09:03:15.551Z,1088.00
2018-12-01T09:04:14.944Z,1004.00
2018-12-01T09:05:14.975Z,908.00
2018-12-01T09:06:14.924Z,816.00
2018-12-01T09:07:14.916Z,744.00
2018-12-01T09:08:14.909Z,684.00
2018-12-01T09:09:14.936Z,640.00
2018-12-01T09:10:14.881Z,612.00
2018-12-01T09:11:14.934Z,592.00
2018-12-01T09:12:15.101Z,572.00
2018-12-01T09:13:14.849Z,564.00
2018-12-01T09:14:14.875Z,564.00
2018-12-01T09:15:14.851Z,576.00
2018-12-01T09:16:14.821Z,596.00
2018-12-01T09:17:14.803Z,616.00
2018-12-01T09:18:14.847Z,632.00
2018-12-01T09:19:14.779Z,652.00
2018-12-01T09:20:14.766Z,680.00
2018-12-01T09:21:14.759Z,716.00
2018-12-01T09:22:14.759Z,748.00
2018-12-01T09:23:14.805Z,796.00
2018-12-01T09:24:14.723Z,848.00
2018-12-01T09:25:14.713Z,868.00
2018-12-01T09:26:14.704Z,872.00
2018-12-01T09:27:14.703Z,900.00
2018-12-01T09:28:14.721Z,952.00
2018-12-01T09:29:14.696Z,912.00
2018-12-01T09:30:14.709Z,860.00
2018-12-01T09:31:14.675Z,848.00
2018-12-01T09:32:14.629Z,860.00
2018-12-01T09:33:14.663Z,872.00
2018-12-01T09:34:14.610Z,884.00
2018-12-01T09:35:14.599Z,868.00
2018-12-01T09:36:14.605Z,872.00
2018-12-01T09:37:14.577Z,868.00
2018-12-01T09:38:14.587Z,860.00
2018-12-01T09:39:14.559Z,844.00
2018-12-01T09:40:14.551Z,812.00
2018-12-01T09:41:14.534Z,772.00
2018-12-01T09:42:14.577Z,744.00
2018-12-01T09:43:14.515Z,728.00
2018-12-01T09:44:14.501Z,724.00
2018-12-01T09:45:14.494Z,740.00
2018-12-01T09:46:14.516Z,744.00
2018-12-01T09:47:14.505Z,756.00
2018-12-01T09:48:14.454Z,752.00
2018-12-01T09:49:14.450Z,732.00
2018-12-01T09:50:14.436Z,752.00
2018-12-01T09:51:14.454Z,772.00
2018-12-01T09:52:14.410Z,808.00
2018-12-01T09:53:14.415Z,836.00
2018-12-01T09:54:14.390Z,856.00
2018-12-01T09:55:14.409Z,856.00
2018-12-01T09:56:14.687Z,856.00
2018-12-01T09:57:14.353Z,876.00
2018-12-01T09:58:14.342Z,892.00
2018-12-01T09:59:14.333Z,912.00
2018-12-01T10:00:14.324Z,936.00
2018-12-01T10:01:14.348Z,948.00
2018-12-01T10:02:14.304Z,964.00
2018-12-01T10:03:14.433Z,956.00
2018-12-01T10:04:14.276Z,960.00
2018-12-01T10:05:14.267Z,964.00
2018-12-01T10:06:14.285Z,972.00
2018-12-01T10:07:14.304Z,988.00
2018-12-01T10:08:14.266Z,996.00
2018-12-01T10:09:14.221Z,1004.00
2018-12-01T10:10:14.221Z,1040.00
2018-12-01T10:11:14.201Z,1124.00
2018-12-01T10:12:14.213Z,1184.00
2018-12-01T10:13:14.175Z,1208.00
2018-12-01T10:14:15.220Z,1248.00
2018-12-01T10:15:14.208Z,1248.00
2018-12-01T10:16:14.144Z,1272.00
2018-12-01T10:17:14.160Z,1332.00
2018-12-01T10:18:14.126Z,1396.00
2018-12-01T10:19:14.108Z,1332.00
2018-12-01T10:20:14.097Z,1312.00
2018-12-01T10:21:14.084Z,1192.00
2018-12-01T10:22:14.105Z,1176.00
2018-12-01T10:23:14.202Z,1224.00
2018-12-01T10:24:14.053Z,1320.00
2018-12-01T10:25:14.077Z,1496.00
2018-12-01T10:26:14.062Z,1488.00
2018-12-01T10:27:14.042Z,1400.00
2018-12-01T10:28:14.009Z,1264.00
2018-12-01T10:29:13.997Z,1148.00
2018-12-01T10:30:14.014Z,1084.00
2018-12-01T10:31:13.974Z,1072.00
2018-12-01T10:32:13.958Z,1116.00
2018-12-01T10:33:13.979Z,1180.00
2018-12-01T10:34:13.949Z,1244.00
2018-12-01T10:35:13.955Z,1240.00
2018-12-01T10:36:13.918Z,1224.00
2018-12-01T10:37:13.906Z,1244.00
2018-12-01T10:38:13.966Z,1304.00
2018-12-01T10:39:13.884Z,1344.00
2018-12-01T10:40:13.897Z,1404.00
2018-12-01T10:41:13.885Z,1404.00
2018-12-01T10:42:13.853Z,1428.00
2018-12-01T10:43:14.246Z,1380.00
2018-12-01T10:44:13.831Z,1328.00
2018-12-01T10:45:13.861Z,1272.00
2018-12-01T10:46:13.809Z,1248.00
2018-12-01T10:47:13.805Z,1256.00
2018-12-01T10:48:14.614Z,1284.00
2018-12-01T10:49:13.789Z,1312.00
2018-12-01T10:50:13.803Z,1316.00
2018-12-01T10:51:13.770Z,1328.00
2018-12-01T10:52:14.458Z,1420.00
2018-12-01T10:53:13.740Z,1648.00
2018-12-01T10:54:13.721Z,2056.00
2018-12-01T10:55:14.527Z,2200.00
2018-12-01T10:56:13.700Z,2236.00
2018-12-01T10:57:13.694Z,2376.00
2018-12-01T10:58:13.675Z,2532.00
2018-12-01T10:59:13.705Z,2568.00
2018-12-01T11:00:13.649Z,2544.00
2018-12-01T11:01:13.750Z,2092.00
2018-12-01T11:02:13.670Z,2068.00
2018-12-01T11:03:13.617Z,2140.00
2018-12-01T11:04:13.652Z,1776.00
2018-12-01T11:05:13.606Z,1272.00
2018-12-01T11:06:14.177Z,1080.00
2018-12-01T11:07:13.573Z,1080.00
2018-12-01T11:08:13.575Z,1080.00
2018-12-01T11:09:13.582Z,1000.00
2018-12-01T11:10:13.565Z,984.00
2018-12-01T11:11:13.544Z,1020.00
2018-12-01T11:12:13.532Z,1080.00
2018-12-01T11:13:13.506Z,1116.00
2018-12-01T11:14:13.499Z,1100.00
2018-12-01T11:15:13.518Z,1116.00
2018-12-01T11:16:13.474Z,1120.00
2018-12-01T11:17:13.463Z,1172.00
2018-12-01T11:18:13.454Z,1272.00
2018-12-01T11:19:13.561Z,1348.00
2018-12-01T11:20:13.443Z,1280.00
2018-12-01T11:21:13.424Z,1260.00
2018-12-01T11:22:13.458Z,1284.00
2018-12-01T11:23:13.401Z,1232.00
2018-12-01T11:24:13.434Z,1212.00
2018-12-01T11:25:13.378Z,1264.00
2018-12-01T11:26:13.367Z,1388.00
2018-12-01T11:27:13.355Z,1484.00
2018-12-01T11:28:13.380Z,1496.00
2018-12-01T11:29:13.333Z,1584.00
2018-12-01T11:30:13.330Z,1680.00
2018-12-01T11:31:13.349Z,1888.00
2018-12-01T11:32:13.299Z,2080.00
2018-12-01T11:33:13.307Z,2200.00
2018-12-01T11:34:13.308Z,2268.00
2018-12-01T11:35:13.265Z,2572.00
2018-12-01T11:36:13.251Z,2688.00
2018-12-01T11:37:13.240Z,2996.00
2018-12-01T11:38:13.232Z,2916.00
2018-12-01T11:39:13.247Z,3112.00
2018-12-01T11:40:13.203Z,3212.00
2018-12-01T11:41:13.238Z,3152.00
2018-12-01T11:42:13.185Z,3340.00
2018-12-01T11:43:13.166Z,3500.00
2018-12-01T11:44:13.164Z,3676.00
2018-12-01T11:45:13.151Z,3516.00
2018-12-01T11:46:13.213Z,3188.00
2018-12-01T11:47:13.181Z,2876.00
2018-12-01T11:48:13.129Z,3044.00
2018-12-01T11:49:13.155Z,2932.00
2018-12-01T11:50:13.093Z,2864.00
2018-12-01T11:51:13.114Z,2760.00
2018-12-01T11:52:13.085Z,2764.00
2018-12-01T11:53:13.072Z,3152.00
2018-12-01T11:54:13.053Z,3216.00
2018-12-01T11:55:13.044Z,3304.00
2018-12-01T11:56:13.078Z,3440.00
2018-12-01T11:57:13.019Z,3484.00
2018-12-01T11:58:13.007Z,3580.00
2018-12-01T11:59:12.998Z,3496.00
2018-12-01T12:00:12.986Z,3588.00
2018-12-01T12:01:13.011Z,3684.00
2018-12-01T12:02:13.013Z,3860.00
2018-12-01T12:03:12.957Z,3900.00
2018-12-01T12:04:12.950Z,3836.00
2018-12-01T12:05:12.938Z,3800.00
2018-12-01T12:06:12.949Z,3592.00
2018-12-01T12:07:12.902Z,3352.00
2018-12-01T12:08:12.914Z,3096.00
2018-12-01T12:09:12.930Z,2724.00
2018-12-01T12:10:12.886Z,2632.00
2018-12-01T12:11:12.870Z,2844.00
2018-12-01T12:12:12.854Z,2832.00
2018-12-01T12:13:12.864Z,3004.00
2018-12-01T12:14:12.858Z,3240.00
2018-12-01T12:15:12.816Z,3320.00
2018-12-01T12:16:12.804Z,3336.00
2018-12-01T12:17:12.832Z,3416.00
2018-12-01T12:18:12.830Z,3384.00
2018-12-01T12:19:12.771Z,3348.00
2018-12-01T12:20:12.791Z,2936.00
2018-12-01T12:21:12.778Z,2580.00
2018-12-01T12:22:12.737Z,2484.00
2018-12-01T12:23:12.723Z,2360.00
2018-12-01T12:24:12.764Z,2304.00
2018-12-01T12:25:12.740Z,2280.00
2018-12-01T12:26:12.710Z,2344.00
2018-12-01T12:27:12.756Z,2412.00
2018-12-01T12:28:12.708Z,2312.00
2018-12-01T12:29:12.665Z,2260.00
2018-12-01T12:30:12.646Z,2232.00
2018-12-01T12:31:12.637Z,2212.00
2018-12-01T12:32:12.625Z,2060.00
2018-12-01T12:33:12.655Z,1832.00
2018-12-01T12:34:12.610Z,1672.00
2018-12-01T12:35:12.590Z,1560.00
2018-12-01T12:36:12.578Z,1540.00
2018-12-01T12:37:12.573Z,1596.00
2018-12-01T12:38:12.606Z,1780.00
2018-12-01T12:39:12.545Z,1980.00
2018-12-01T12:40:12.540Z,1712.00
2018-12-01T12:41:12.523Z,1880.00
2018-12-01T12:42:12.531Z,1856.00
2018-12-01T12:43:12.532Z,1552.00
2018-12-01T12:44:12.519Z,1528.00
2018-12-01T12:45:12.489Z,1576.00
2018-12-01T12:46:12.495Z,1640.00
2018-12-01T12:47:12.463Z,1744.00
2018-12-01T12:48:12.472Z,1848.00
2018-12-01T12:49:12.503Z,1768.00
2018-12-01T12:50:12.421Z,1736.00